Time;durP1;ratioP1;P1;durP2;ratioP2;P2;SDS_P1;SDS_P2;PMS_P1;PMS_P2;Temp;Humidity;BMP_temperature;BMP_pressure;BME280_temperature;BME280_humidity;BME280_pressure;Samples;Min_cycle;Max_cycle;Signal;HPM_P1;HPM_P2
2022/02/14 00:00:00;;;;;;;5.82;3.85;;;6.30;98.70;;;;;;5073445;28;20212;-88
2022/02/14 00:02:27;;;;;;;7.70;4.28;;;6.10;98.30;;;;;;5069807;28;20676;-89
2022/02/14 00:04:54;;;;;;;7.57;4.90;;;6.10;98.10;;;;;;5070319;28;20236;-88
2022/02/14 00:07:22;;;;;;;7.05;4.00;;;6.50;98.20;;;;;;5069695;28;20241;-89
2022/02/14 00:09:49;;;;;;;8.13;3.90;;;6.60;98.00;;;;;;5070275;28;20294;-86
2022/02/14 00:12:16;;;;;;;9.65;4.18;;;6.60;97.90;;;;;;5068415;28;20258;-86
2022/02/14 00:14:43;;;;;;;5.82;3.63;;;6.30;97.60;;;;;;5068363;28;20276;-87
2022/02/14 00:17:10;;;;;;;6.88;3.75;;;6.70;97.70;;;;;;5068671;28;20220;-86
2022/02/14 00:19:36;;;;;;;6.68;4.18;;;6.60;97.60;;;;;;5069531;28;20230;-89
2022/02/14 00:22:04;;;;;;;6.88;3.90;;;6.80;97.90;;;;;;5068174;28;20240;-89
2022/02/14 00:24:32;;;;;;;6.57;4.30;;;6.70;97.50;;;;;;5064554;28;20208;-88
2022/02/14 00:26:59;;;;;;;7.80;4.25;;;6.80;97.40;;;;;;5064577;28;20228;-87
2022/02/14 00:29:26;;;;;;;5.72;3.80;;;6.50;97.10;;;;;;5066506;28;20219;-88
2022/02/14 00:31:53;;;;;;;7.70;4.38;;;6.40;97.00;;;;;;5074115;28;20212;-88
2022/02/14 00:34:20;;;;;;;6.82;3.75;;;6.40;96.80;;;;;;5071928;28;20300;-87
2022/02/14 00:36:47;;;;;;;7.30;4.18;;;6.70;96.80;;;;;;5076513;28;20268;-88
2022/02/14 00:39:13;;;;;;;8.40;4.60;;;6.40;96.60;;;;;;5070486;28;20199;-88
2022/02/14 00:41:42;;;;;;;7.60;4.80;;;6.40;96.30;;;;;;5067318;28;20214;-86
2022/02/14 00:44:08;;;;;;;7.50;3.60;;;6.80;96.60;;;;;;5068063;28;20207;-88
2022/02/14 00:46:35;;;;;;;6.88;4.03;;;6.50;96.50;;;;;;5065876;28;20212;-88
2022/02/14 00:49:02;;;;;;;8.30;4.35;;;6.60;96.30;;;;;;5062766;28;20211;-89
2022/02/14 00:51:29;;;;;;;7.38;3.85;;;6.70;96.30;;;;;;5063753;28;20210;-89
2022/02/14 00:53:56;;;;;;;6.75;4.10;;;7.30;96.20;;;;;;5064603;28;20329;-90
2022/02/14 00:56:24;;;;;;;7.90;4.05;;;6.90;95.90;;;;;;5064796;28;20297;-89
2022/02/14 00:58:52;;;;;;;6.55;4.18;;;6.70;95.60;;;;;;5066770;28;20213;-87
2022/02/14 01:01:19;;;;;;;7.18;4.47;;;6.70;95.50;;;;;;5066010;28;20211;-88
2022/02/14 01:03:46;;;;;;;5.32;3.58;;;7.10;95.60;;;;;;5065179;28;20208;-89
2022/02/14 01:06:13;;;;;;;6.38;4.25;;;7.10;95.70;;;;;;5076974;28;20239;-89
2022/02/14 01:08:40;;;;;;;8.35;4.05;;;6.70;95.60;;;;;;5071475;28;20267;-89
2022/02/14 01:11:07;;;;;;;5.68;3.55;;;7.10;95.70;;;;;;5068990;28;20220;-88
2022/02/14 01:13:34;;;;;;;6.80;3.85;;;6.60;95.50;;;;;;5068862;28;20250;-89
2022/02/14 01:16:03;;;;;;;6.20;3.42;;;6.60;95.50;;;;;;5068596;28;20234;-86
2022/02/14 01:18:29;;;;;;;5.70;3.80;;;7.10;95.40;;;;;;5068736;28;20225;-90
2022/02/14 01:20:56;;;;;;;5.50;3.03;;;7.20;95.30;;;;;;5069655;28;20207;-88
2022/02/14 01:23:23;;;;;;;6.80;3.90;;;7.20;95.40;;;;;;5080654;28;20187;-87
2022/02/14 01:25:50;;;;;;;8.10;3.80;;;7.30;94.90;;;;;;5080104;28;20256;-87
2022/02/14 01:28:17;;;;;;;7.30;3.90;;;7.30;95.10;;;;;;5080065;28;20260;-89
2022/02/14 01:30:44;;;;;;;8.57;3.55;;;6.80;94.60;;;;;;5078663;28;20650;-88
2022/02/14 01:33:12;;;;;;;7.43;3.58;;;7.30;94.70;;;;;;5073533;28;20212;-89
2022/02/14 01:35:39;;;;;;;6.07;3.85;;;6.90;94.20;;;;;;5075379;28;20255;-87
2022/02/14 01:38:06;;;;;;;6.80;4.10;;;7.60;94.40;;;;;;5078661;28;20220;-89
2022/02/14 01:40:33;;;;;;;7.28;3.90;;;7.00;93.90;;;;;;5078443;28;20238;-89
2022/02/14 01:43:00;;;;;;;7.40;3.53;;;7.50;94.20;;;;;;5068644;28;20205;-89
2022/02/14 01:45:27;;;;;;;8.93;3.83;;;7.00;93.90;;;;;;5067741;28;20255;-89
2022/02/14 01:47:54;;;;;;;5.93;3.63;;;7.10;93.90;;;;;;5067109;28;20755;-88
2022/02/14 01:50:22;;;;;;;7.07;3.28;;;6.80;93.80;;;;;;5069533;28;20550;-88
2022/02/14 01:52:53;;;;;;;7.05;3.22;;;7.30;93.90;;;;;;5075765;28;20635;-86
2022/02/14 01:55:21;;;;;;;6.30;3.47;;;6.90;93.60;;;;;;5073396;28;20213;-88
2022/02/14 01:57:50;;;;;;;7.75;4.22;;;7.10;93.40;;;;;;5070923;28;20526;-88
2022/02/14 02:00:19;;;;;;;7.20;3.53;;;7.10;93.20;;;;;;5070917;28;20207;-89
2022/02/14 02:02:47;;;;;;;4.85;3.08;;;7.50;93.20;;;;;;5078263;28;20193;-88
2022/02/14 02:05:14;;;;;;;7.00;3.45;;;7.40;93.10;;;;;;5070471;28;20230;-87
2022/02/14 02:07:43;;;;;;;8.23;4.90;;;7.40;93.00;;;;;;5070516;28;20312;-87
2022/02/14 02:10:12;;;;;;;9.93;3.20;;;7.30;92.80;;;;;;5070186;28;20236;-88
2022/02/14 02:12:47;;;;;;;7.10;3.47;;;7.50;92.90;;;;;;5070474;28;20654;-88
2022/02/14 02:15:14;;;;;;;5.82;3.20;;;7.40;92.70;;;;;;5070230;28;20272;-87
2022/02/14 02:17:42;;;;;;;7.15;3.53;;;7.50;92.20;;;;;;5068538;28;20240;-88
2022/02/14 02:20:13;;;;;;;6.03;2.90;;;7.30;92.10;;;;;;5068176;28;20619;-89
2022/02/14 02:22:41;;;;;;;6.90;2.92;;;7.60;91.90;;;;;;5074257;28;20217;-89
2022/02/14 02:25:11;;;;;;;7.32;3.15;;;7.50;91.80;;;;;;5076101;28;20239;-88
2022/02/14 02:30:12;;;;;;;8.27;4.10;;;7.60;91.70;;;;;;5122940;28;20219;-83
2022/02/14 02:32:39;;;;;;;8.95;3.70;;;7.70;91.30;;;;;;5122471;28;20231;-83
2022/02/14 02:35:07;;;;;;;6.40;2.72;;;7.60;91.00;;;;;;5127081;28;20210;-81
2022/02/14 02:37:33;;;;;;;5.60;3.17;;;7.70;90.70;;;;;;5126847;28;20268;-82
2022/02/14 02:40:00;;;;;;;4.63;2.70;;;7.80;90.60;;;;;;5099426;28;20264;-82
2022/02/14 02:42:29;;;;;;;5.35;3.30;;;7.70;90.50;;;;;;5099109;28;20208;-82
2022/02/14 02:44:56;;;;;;;5.90;2.75;;;7.90;90.50;;;;;;5099288;28;20236;-82
2022/02/14 02:47:24;;;;;;;5.75;3.08;;;7.80;90.20;;;;;;5098842;28;20203;-82
2022/02/14 02:49:52;;;;;;;7.10;3.20;;;7.80;90.30;;;;;;5098884;28;20707;-82
2022/02/14 02:52:20;;;;;;;5.13;2.95;;;7.60;90.70;;;;;;5098727;28;20294;-83
2022/02/14 02:54:48;;;;;;;7.00;3.25;;;7.60;90.30;;;;;;5098949;28;20576;-82
2022/02/14 02:57:16;;;;;;;6.22;3.15;;;7.70;90.30;;;;;;5099791;28;20696;-83
2022/02/14 02:59:44;;;;;;;4.65;2.33;;;7.70;89.80;;;;;;5098254;28;20319;-82
2022/02/14 03:02:12;;;;;;;5.78;3.38;;;7.80;89.20;;;;;;5098855;28;20233;-82
2022/02/14 03:04:39;;;;;;;5.63;2.55;;;7.80;89.00;;;;;;5098333;28;20208;-82
2022/02/14 03:07:06;;;;;;;5.05;2.40;;;7.60;88.00;;;;;;5099886;28;20206;-82
2022/02/14 03:09:33;;;;;;;7.10;2.72;;;7.70;89.10;;;;;;5099224;28;20311;-82
2022/02/14 03:12:00;;;;;;;4.55;2.40;;;7.50;88.50;;;;;;5098583;28;20686;-82
2022/02/14 03:14:27;;;;;;;5.35;3.20;;;7.40;87.90;;;;;;5099070;28;20204;-82
2022/02/14 03:16:55;;;;;;;4.80;2.50;;;7.70;87.90;;;;;;5098945;28;20699;-82
2022/02/14 03:19:22;;;;;;;5.53;2.70;;;7.80;87.60;;;;;;5100270;28;20235;-82
2022/02/14 03:21:49;;;;;;;5.35;2.80;;;7.90;87.70;;;;;;5105395;28;20207;-82
2022/02/14 03:24:16;;;;;;;7.22;2.60;;;7.80;87.30;;;;;;5104988;28;20378;-83
2022/02/14 03:26:43;;;;;;;5.40;2.60;;;7.80;86.60;;;;;;5099029;28;20200;-82
2022/02/14 03:29:12;;;;;;;5.38;2.40;;;7.70;86.40;;;;;;5098701;28;20239;-81
2022/02/14 03:31:39;;;;;;;4.50;2.35;;;7.60;86.70;;;;;;5100638;28;20229;-82
2022/02/14 03:34:08;;;;;;;6.90;2.60;;;7.80;86.90;;;;;;5098081;28;20245;-82
2022/02/14 03:36:35;;;;;;;4.38;2.25;;;7.50;86.80;;;;;;5102143;28;20285;-81
2022/02/14 03:39:03;;;;;;;4.68;2.50;;;7.40;86.30;;;;;;5110576;28;20314;-82
2022/02/14 03:41:30;;;;;;;4.70;2.33;;;7.60;86.60;;;;;;5099328;28;20235;-82
2022/02/14 03:43:57;;;;;;;5.65;2.80;;;7.50;86.60;;;;;;5099215;28;20207;-82
2022/02/14 03:46:24;;;;;;;4.47;2.63;;;7.60;87.00;;;;;;5099351;28;20612;-82
2022/02/14 03:48:50;;;;;;;6.75;2.83;;;7.10;86.40;;;;;;5102149;28;20314;-82
2022/02/14 03:51:19;;;;;;;5.10;2.42;;;7.40;87.20;;;;;;5116012;28;20227;-81
2022/02/14 03:53:45;;;;;;;4.00;2.20;;;7.50;86.90;;;;;;5101797;28;20659;-82
2022/02/14 03:56:13;;;;;;;5.47;2.53;;;7.50;86.20;;;;;;5097867;28;20243;-82
2022/02/14 03:58:39;;;;;;;4.78;2.70;;;7.40;86.70;;;;;;5101117;28;20234;-81
2022/02/14 04:01:07;;;;;;;6.55;3.13;;;7.40;86.90;;;;;;5099557;28;20212;-81
2022/02/14 04:03:34;;;;;;;4.45;2.30;;;7.70;86.70;;;;;;5107081;28;20213;-81
2022/02/14 04:06:01;;;;;;;3.72;2.00;;;7.30;86.80;;;;;;5101135;28;20231;-82
2022/02/14 04:08:29;;;;;;;5.07;2.40;;;7.50;87.60;;;;;;5097864;28;20234;-82
2022/02/14 04:10:58;;;;;;;4.47;2.45;;;7.50;86.30;;;;;;5097049;28;20213;-82
2022/02/14 04:13:25;;;;;;;5.20;2.00;;;7.40;86.30;;;;;;5097740;28;20226;-82
2022/02/14 04:15:52;;;;;;;5.20;2.38;;;7.50;85.70;;;;;;5097841;28;20216;-82
2022/02/14 04:18:18;;;;;;;5.88;2.58;;;7.10;85.70;;;;;;5097447;28;20257;-82
2022/02/14 04:20:45;;;;;;;6.10;2.38;;;7.40;86.20;;;;;;5097925;28;20209;-82
2022/02/14 04:23:12;;;;;;;3.67;2.05;;;7.30;86.60;;;;;;5097479;28;20211;-82
2022/02/14 04:25:40;;;;;;;4.75;2.25;;;7.50;86.90;;;;;;5097855;28;20215;-82
2022/02/14 04:28:07;;;;;;;4.97;2.30;;;7.40;87.40;;;;;;5097350;28;20237;-83
2022/02/14 04:30:34;;;;;;;6.00;2.72;;;7.00;87.30;;;;;;5098249;28;20190;-82
2022/02/14 04:33:02;;;;;;;4.55;2.30;;;7.30;88.50;;;;;;5098458;28;20206;-82
2022/02/14 04:35:30;;;;;;;4.35;2.22;;;7.40;88.90;;;;;;5097124;28;20714;-82
2022/02/14 04:37:59;;;;;;;4.22;2.55;;;7.30;87.50;;;;;;5097904;28;20294;-82
2022/02/14 04:40:28;;;;;;;5.85;3.13;;;7.40;88.80;;;;;;5098862;28;20216;-82
2022/02/14 04:42:57;;;;;;;7.20;3.38;;;7.50;89.40;;;;;;5102317;28;20237;-82
2022/02/14 04:45:24;;;;;;;7.55;2.95;;;7.40;89.40;;;;;;5101184;28;20678;-82
2022/02/14 04:47:52;;;;;;;5.47;2.95;;;7.40;90.30;;;;;;5106014;28;20199;-82
2022/02/14 04:50:18;;;;;;;6.82;4.00;;;7.20;90.80;;;;;;5108758;28;20298;-82
2022/02/14 04:52:45;;;;;;;6.38;3.33;;;7.40;91.20;;;;;;5102083;28;20214;-82
2022/02/14 04:55:13;;;;;;;8.30;3.13;;;7.20;91.50;;;;;;5104176;28;20302;-80
2022/02/14 04:57:40;;;;;;;6.15;3.33;;;7.00;91.60;;;;;;5109631;28;20221;-81
2022/02/14 05:00:12;;;;;;;4.80;2.75;;;6.80;92.30;;;;;;5101144;28;20204;-83
2022/02/14 05:02:39;;;;;;;7.45;3.67;;;6.70;92.60;;;;;;5101886;28;20277;-83
2022/02/14 05:05:07;;;;;;;6.30;3.03;;;6.90;92.80;;;;;;5102455;28;20241;-81
2022/02/14 05:07:34;;;;;;;5.82;2.70;;;6.60;92.80;;;;;;5107861;28;20260;-81
2022/02/14 05:10:01;;;;;;;4.43;2.47;;;6.80;92.60;;;;;;5105705;28;20233;-81
2022/02/14 05:12:28;;;;;;;7.20;2.45;;;6.70;92.70;;;;;;5101563;28;20288;-82
2022/02/14 05:14:54;;;;;;;5.38;2.47;;;6.80;93.00;;;;;;5100647;28;20296;-81
2022/02/14 05:17:23;;;;;;;6.28;2.72;;;6.40;92.90;;;;;;5101723;28;20317;-82
2022/02/14 05:19:49;;;;;;;5.13;2.55;;;6.50;92.90;;;;;;5105828;28;20234;-82
2022/02/14 05:22:16;;;;;;;6.15;2.75;;;6.40;93.00;;;;;;5108802;28;20209;-82
2022/02/14 05:24:43;;;;;;;5.05;2.20;;;6.50;93.00;;;;;;5112044;28;20296;-82
2022/02/14 05:27:10;;;;;;;6.00;2.40;;;6.00;92.90;;;;;;5104156;28;20684;-83
2022/02/14 05:29:37;;;;;;;5.40;2.78;;;5.90;92.90;;;;;;5101472;28;20327;-83
2022/02/14 05:32:04;;;;;;;5.30;3.20;;;6.30;93.10;;;;;;5110521;28;20211;-82
2022/02/14 05:34:32;;;;;;;4.50;2.20;;;6.30;93.00;;;;;;5110847;28;20292;-82
2022/02/14 05:36:59;;;;;;;6.55;2.75;;;6.30;92.90;;;;;;5102812;28;20224;-83
2022/02/14 05:39:27;;;;;;;4.03;2.10;;;6.20;93.00;;;;;;5101763;28;20265;-82
2022/02/14 05:41:54;;;;;;;4.97;2.28;;;6.10;93.10;;;;;;5102024;28;20273;-82
2022/02/14 05:44:21;;;;;;;3.83;2.10;;;6.00;93.00;;;;;;5102362;28;20205;-82
2022/02/14 05:46:48;;;;;;;8.45;2.80;;;6.00;93.00;;;;;;5102624;28;20217;-83
2022/02/14 05:49:15;;;;;;;5.97;2.38;;;6.00;93.20;;;;;;5106221;28;20294;-82
2022/02/14 05:51:43;;;;;;;4.60;2.45;;;6.10;93.70;;;;;;5105706;28;20249;-82
2022/02/14 05:54:10;;;;;;;5.45;2.40;;;5.90;93.50;;;;;;5100304;28;20215;-82
2022/02/14 05:56:36;;;;;;;4.53;2.20;;;6.10;93.70;;;;;;5102024;28;20200;-82
2022/02/14 05:59:03;;;;;;;5.18;2.80;;;6.20;93.50;;;;;;5101450;28;20316;-82
2022/02/14 06:01:31;;;;;;;8.05;2.63;;;6.10;93.30;;;;;;5106449;28;20312;-82
2022/02/14 06:03:58;;;;;;;7.00;2.25;;;6.00;93.10;;;;;;5101965;28;20210;-82
2022/02/14 06:06:25;;;;;;;4.95;2.22;;;6.30;93.00;;;;;;5101720;28;20310;-82
2022/02/14 06:08:53;;;;;;;8.52;3.45;;;6.00;92.70;;;;;;5100972;28;20230;-82
2022/02/14 06:11:21;;;;;;;4.95;2.53;;;6.00;92.70;;;;;;5102636;28;20202;-82
2022/02/14 06:13:48;;;;;;;7.35;2.53;;;6.00;92.90;;;;;;5100985;28;20204;-82
2022/02/14 06:16:15;;;;;;;6.88;2.55;;;5.80;92.90;;;;;;5103841;28;20225;-82
2022/02/14 06:18:42;;;;;;;6.90;2.60;;;5.70;92.70;;;;;;5106621;28;20233;-81
2022/02/14 06:21:09;;;;;;;7.35;2.80;;;6.00;92.70;;;;;;5114223;28;20209;-82
2022/02/14 06:23:36;;;;;;;7.45;3.30;;;6.20;92.90;;;;;;5113391;28;20220;-82
2022/02/14 06:26:04;;;;;;;6.85;3.25;;;6.20;93.10;;;;;;5102584;28;20289;-82
2022/02/14 06:28:37;;;;;;;5.65;2.83;;;6.00;92.90;;;;;;5101303;28;20231;-82
2022/02/14 06:31:27;;;;;;;6.10;3.13;;;6.10;93.10;;;;;;5101664;28;20279;-82
2022/02/14 06:33:55;;;;;;;6.55;3.10;;;6.00;93.10;;;;;;5102313;28;20205;-82
2022/02/14 06:36:26;;;;;;;6.75;3.33;;;6.00;93.00;;;;;;5102550;28;20303;-82
2022/02/14 06:38:53;;;;;;;5.05;2.80;;;5.80;92.90;;;;;;5101605;28;20294;-83
2022/02/14 06:41:23;;;;;;;6.65;2.55;;;5.90;92.80;;;;;;5104267;28;20218;-82
2022/02/14 06:43:50;;;;;;;7.57;2.65;;;6.30;93.00;;;;;;5109784;28;20206;-83
2022/02/14 06:46:17;;;;;;;6.72;2.78;;;5.80;92.60;;;;;;5101601;28;20297;-82
2022/02/14 06:48:43;;;;;;;7.20;2.47;;;6.40;92.90;;;;;;5101643;28;20223;-82
2022/02/14 06:51:11;;;;;;;8.07;3.10;;;6.10;92.70;;;;;;5101882;28;20709;-82
2022/02/14 06:53:38;;;;;;;5.88;2.72;;;6.30;92.90;;;;;;5104171;28;20277;-82
2022/02/14 06:56:06;;;;;;;10.05;2.83;;;6.20;92.90;;;;;;5114795;28;20218;-83
2022/02/14 06:58:35;;;;;;;6.13;3.15;;;6.10;92.80;;;;;;5112991;28;20586;-81
2022/02/14 07:01:02;;;;;;;7.00;2.70;;;6.30;92.90;;;;;;5103818;28;20298;-82
2022/02/14 07:03:29;;;;;;;7.38;2.83;;;6.40;93.00;;;;;;5105252;28;20227;-83
2022/02/14 07:05:56;;;;;;;5.50;3.03;;;6.10;92.90;;;;;;5104092;28;20238;-83
2022/02/14 07:08:23;;;;;;;7.07;3.30;;;5.80;92.90;;;;;;5102573;28;20306;-82
2022/02/14 07:10:50;;;;;;;8.70;3.17;;;6.00;93.00;;;;;;5103715;28;20288;-83
2022/02/14 07:13:17;;;;;;;8.45;2.75;;;6.20;93.30;;;;;;5102436;28;20309;-83
2022/02/14 07:15:45;;;;;;;9.20;3.00;;;6.20;93.40;;;;;;5102376;28;20236;-83
2022/02/14 07:18:13;;;;;;;8.15;3.22;;;6.50;93.50;;;;;;5101144;28;20271;-83
2022/02/14 07:20:41;;;;;;;7.97;3.22;;;6.40;93.40;;;;;;5102720;28;20207;-83
2022/02/14 07:23:08;;;;;;;6.75;2.83;;;6.40;93.50;;;;;;5108247;28;20255;-82
2022/02/14 07:25:35;;;;;;;6.95;3.20;;;6.50;93.40;;;;;;5111887;28;20664;-80
2022/02/14 07:28:02;;;;;;;6.50;3.05;;;6.50;93.10;;;;;;5101041;28;20232;-81
2022/02/14 07:30:29;;;;;;;6.65;3.25;;;6.60;93.30;;;;;;5105412;28;20194;-82
2022/02/14 07:32:57;;;;;;;7.55;3.45;;;6.70;93.60;;;;;;5105731;28;20238;-82
2022/02/14 07:35:24;;;;;;;8.50;3.50;;;6.60;93.90;;;;;;5102618;28;20213;-82
2022/02/14 07:37:51;;;;;;;6.20;3.90;;;6.60;93.70;;;;;;5101705;28;20227;-82
2022/02/14 07:40:19;;;;;;;10.38;3.85;;;6.70;94.00;;;;;;5105012;28;20236;-83
2022/02/14 07:42:45;;;;;;;12.27;3.42;;;6.60;94.10;;;;;;5101470;28;20214;-82
2022/02/14 07:45:13;;;;;;;9.13;4.20;;;6.60;94.20;;;;;;5102152;28;20207;-83
2022/02/14 07:47:40;;;;;;;8.70;3.60;;;6.80;94.30;;;;;;5114111;28;20199;-82
2022/02/14 07:50:11;;;;;;;9.13;3.40;;;6.90;94.20;;;;;;5111277;28;20241;-82
2022/02/14 07:52:38;;;;;;;7.65;3.40;;;7.10;93.80;;;;;;5100787;28;20219;-82
2022/02/14 07:55:06;;;;;;;7.68;3.33;;;6.50;93.10;;;;;;5101039;28;20203;-82
2022/02/14 07:57:34;;;;;;;7.40;3.80;;;6.90;93.10;;;;;;5101250;28;20297;-82
2022/02/14 08:00:02;;;;;;;6.60;3.80;;;7.20;93.00;;;;;;5103005;28;20199;-84
2022/02/14 08:02:29;;;;;;;7.43;3.28;;;7.10;93.20;;;;;;5103185;28;20210;-83
2022/02/14 08:04:57;;;;;;;11.93;3.80;;;6.90;92.10;;;;;;5115575;28;20240;-83
2022/02/14 08:07:25;;;;;;;8.05;3.60;;;7.30;91.80;;;;;;5104945;28;20616;-83
2022/02/14 08:09:52;;;;;;;8.73;3.25;;;7.00;91.40;;;;;;5100979;28;20234;-82
2022/02/14 08:12:20;;;;;;;16.58;4.45;;;7.20;91.30;;;;;;5099783;28;20215;-83
2022/02/14 08:14:48;;;;;;;7.55;3.63;;;7.80;91.20;;;;;;5099282;28;20239;-83
2022/02/14 08:17:16;;;;;;;6.10;3.00;;;7.80;91.00;;;;;;5099614;28;20193;-83
2022/02/14 08:19:43;;;;;;;8.05;3.13;;;7.90;90.40;;;;;;5098960;28;20225;-83
2022/02/14 08:22:10;;;;;;;7.97;3.50;;;7.70;90.00;;;;;;5100131;28;20264;-83
2022/02/14 08:24:38;;;;;;;6.85;3.58;;;8.10;88.90;;;;;;5104358;28;20954;-83
2022/02/14 08:27:06;;;;;;;13.00;3.63;;;8.30;88.30;;;;;;5104603;28;20699;-83
2022/02/14 08:29:33;;;;;;;7.87;3.27;;;8.30;88.00;;;;;;5104700;28;20240;-84
2022/02/14 08:32:00;;;;;;;8.45;2.70;;;8.40;87.20;;;;;;5128245;22;20489;-89
2022/02/14 08:34:28;;;;;;;6.67;2.73;;;8.60;86.20;;;;;;5113655;28;20175;-86
2022/02/14 08:36:55;;;;;;;7.43;2.93;;;8.70;85.50;;;;;;5117968;28;20509;-89
2022/02/14 08:39:23;;;;;;;6.53;3.20;;;8.90;85.40;;;;;;5112879;28;20512;-89
2022/02/14 08:42:22;;;;;;;7.55;3.00;;;9.00;84.70;;;;;;5112482;28;20499;-88
2022/02/14 08:44:49;;;;;;;6.90;3.27;;;9.10;84.20;;;;;;5128921;28;20184;-88
2022/02/14 08:47:16;;;;;;;4.83;2.60;;;9.30;83.60;;;;;;5129837;28;20446;-87
2022/02/14 08:49:45;;;;;;;6.37;2.80;;;9.30;83.00;;;;;;5128190;28;20457;-88
2022/02/14 08:52:11;;;;;;;8.77;3.27;;;9.40;83.00;;;;;;5136198;28;20503;-87
2022/02/14 08:54:38;;;;;;;8.30;3.50;;;9.50;83.00;;;;;;5136484;28;20495;-87
2022/02/14 08:57:07;;;;;;;7.77;2.40;;;9.80;82.80;;;;;;5134971;28;20505;-88
2022/02/14 08:59:34;;;;;;;6.90;3.40;;;9.70;82.50;;;;;;5133137;28;20481;-87
2022/02/14 09:02:02;;;;;;;7.97;3.47;;;9.70;82.60;;;;;;5131317;28;20454;-88
2022/02/14 09:04:29;;;;;;;11.87;2.60;;;9.80;83.00;;;;;;5128622;28;20453;-88
2022/02/14 09:06:55;;;;;;;10.33;2.90;;;9.90;83.20;;;;;;5128302;28;20450;-87
2022/02/14 09:09:22;;;;;;;7.80;2.93;;;10.00;81.40;;;;;;5133358;28;20421;-87
2022/02/14 09:11:49;;;;;;;11.27;2.90;;;10.20;81.00;;;;;;5134009;28;20568;-88
2022/02/14 09:14:18;;;;;;;6.47;2.87;;;10.30;80.60;;;;;;5132278;28;20467;-88
2022/02/14 09:16:46;;;;;;;5.10;2.90;;;10.60;80.30;;;;;;5130964;28;20524;-87
2022/02/14 09:19:16;;;;;;;8.20;3.50;;;10.70;80.30;;;;;;5130195;28;20492;-88
2022/02/14 09:21:43;;;;;;;7.80;3.30;;;10.90;80.10;;;;;;5128638;28;20497;-89
2022/02/14 09:24:12;;;;;;;7.70;3.00;;;11.10;79.40;;;;;;5128848;28;20431;-87
2022/02/14 09:26:40;;;;;;;6.43;2.63;;;11.10;79.10;;;;;;5133778;28;20438;-87
2022/02/14 09:29:07;;;;;;;8.07;3.00;;;11.10;79.40;;;;;;5135104;28;20470;-87
2022/02/14 09:31:37;;;;;;;4.63;2.63;;;11.20;79.80;;;;;;5135236;28;20534;-88
2022/02/14 09:34:04;;;;;;;10.30;3.20;;;11.30;79.80;;;;;;5131271;28;20438;-89
2022/02/14 09:36:31;;;;;;;7.70;3.50;;;11.40;79.30;;;;;;5131542;28;20438;-88
2022/02/14 09:38:58;;;;;;;8.40;3.13;;;11.50;79.30;;;;;;5132889;28;20477;-88
2022/02/14 09:41:26;;;;;;;5.63;2.30;;;11.60;79.40;;;;;;5138176;28;20442;-89
2022/02/14 09:43:54;;;;;;;7.43;3.23;;;11.60;79.40;;;;;;5135412;28;20452;-89
2022/02/14 09:46:21;;;;;;;5.43;2.30;;;11.50;79.50;;;;;;5136584;28;20473;-89
2022/02/14 09:48:50;;;;;;;6.40;2.70;;;11.60;79.60;;;;;;5133446;28;20445;-89
2022/02/14 09:51:18;;;;;;;7.93;2.70;;;11.60;80.60;;;;;;5139810;28;20418;-88
2022/02/14 09:53:45;;;;;;;6.30;2.40;;;11.60;80.00;;;;;;5138496;28;20525;-88
2022/02/14 09:56:12;;;;;;;7.10;3.57;;;11.60;80.40;;;;;;5129973;28;20830;-89
2022/02/14 09:58:40;;;;;;;9.77;2.97;;;11.70;80.80;;;;;;5129702;28;20451;-87
2022/02/14 10:01:06;;;;;;;8.17;3.53;;;11.80;81.00;;;;;;5133429;28;20519;-87
2022/02/14 10:03:34;;;;;;;6.40;3.33;;;11.80;80.90;;;;;;5135214;28;20476;-87
2022/02/14 10:06:03;;;;;;;7.90;3.13;;;12.00;80.90;;;;;;5130709;28;20426;-87
2022/02/14 10:08:32;;;;;;;7.10;2.80;;;12.10;80.70;;;;;;5128616;28;20981;-87
2022/02/14 10:11:12;;;;;;;8.27;2.83;;;12.10;80.80;;;;;;5135676;28;20464;-88
2022/02/14 10:13:40;;;;;;;10.03;2.87;;;12.30;81.30;;;;;;5135072;28;20488;-88
2022/02/14 10:16:10;;;;;;;9.83;3.03;;;12.30;81.40;;;;;;5131990;28;20476;-89
2022/02/14 10:18:39;;;;;;;8.33;2.97;;;12.40;82.10;;;;;;5129271;28;20444;-87
2022/02/14 10:21:22;;;;;;;10.03;3.00;;;12.40;82.20;;;;;;5137038;28;20413;-87
2022/02/14 10:24:00;;;;;;;7.63;3.40;;;12.50;83.80;;;;;;5132932;28;20409;-87
2022/02/14 10:26:32;;;;;;;6.00;2.90;;;12.50;83.90;;;;;;5132871;28;20445;-89
2022/02/14 10:28:59;;;;;;;8.70;2.60;;;12.60;84.40;;;;;;5129626;28;20424;-88
2022/02/14 10:31:26;;;;;;;7.13;3.03;;;12.60;84.60;;;;;;5134581;28;20443;-88
2022/02/14 10:33:54;;;;;;;9.33;3.70;;;12.70;85.00;;;;;;5139912;28;20462;-87
2022/02/14 10:36:29;;;;;;;7.37;2.93;;;12.70;85.30;;;;;;5138495;28;20470;-89
2022/02/14 10:38:57;;;;;;;11.63;2.73;;;12.80;85.40;;;;;;5136286;28;20469;-87
2022/02/14 10:41:27;;;;;;;8.17;3.00;;;12.90;85.60;;;;;;5133831;28;20409;-87
2022/02/14 10:44:03;;;;;;;5.70;2.47;;;12.90;86.10;;;;;;5134749;28;20435;-87
2022/02/14 10:46:31;;;;;;;6.60;2.80;;;13.00;86.40;;;;;;5134486;28;20470;-88
2022/02/14 10:48:58;;;;;;;8.40;2.50;;;13.10;86.90;;;;;;5136268;28;20455;-87
2022/02/14 10:51:26;;;;;;;5.50;2.30;;;13.10;87.60;;;;;;5140118;28;20424;-87
2022/02/14 10:53:57;;;;;;;5.97;2.37;;;13.10;87.40;;;;;;5140269;28;20471;-88
2022/02/14 10:56:25;;;;;;;5.63;2.50;;;13.00;88.20;;;;;;5139453;28;20415;-88
2022/02/14 10:59:12;;;;;;;10.17;3.20;;;13.10;88.80;;;;;;5140097;28;20477;-88
2022/02/14 11:01:40;;;;;;;9.23;3.03;;;13.10;88.90;;;;;;5131935;28;20465;-87
2022/02/14 11:04:07;;;;;;;5.80;2.90;;;13.10;89.30;;;;;;5132740;28;20448;-88
2022/02/14 11:06:37;;;;;;;5.43;2.60;;;13.10;89.90;;;;;;5135835;28;20463;-89
2022/02/14 11:09:05;;;;;;;9.80;2.57;;;13.20;90.00;;;;;;5131297;28;20433;-88
2022/02/14 11:11:36;;;;;;;10.97;2.60;;;13.20;90.00;;;;;;5131180;28;20479;-88
2022/02/14 11:14:05;;;;;;;6.47;2.10;;;13.20;90.00;;;;;;5133655;28;20428;-88
2022/02/14 11:16:36;;;;;;;4.60;2.00;;;13.30;89.90;;;;;;5132954;28;20458;-89
2022/02/14 11:19:05;;;;;;;4.83;2.37;;;13.50;90.00;;;;;;5138637;28;20472;-88
2022/02/14 11:21:34;;;;;;;5.77;2.07;;;13.60;89.80;;;;;;5136989;28;20435;-87
2022/02/14 11:24:25;;;;;;;6.63;2.40;;;13.60;90.00;;;;;;5136148;28;20450;-87
2022/02/14 11:27:00;;;;;;;8.97;3.17;;;13.40;90.80;;;;;;5133769;28;20412;-88
2022/02/14 11:29:55;;;;;;;6.70;2.60;;;13.50;90.80;;;;;;5129829;28;20441;-89
2022/02/14 11:32:24;;;;;;;6.93;2.60;;;13.50;91.40;;;;;;5114787;28;20486;-89
2022/02/14 11:34:57;;;;;;;16.63;3.07;;;13.50;91.90;;;;;;5138747;28;20429;-88
2022/02/14 11:37:25;;;;;;;6.07;1.90;;;13.40;92.30;;;;;;5129961;28;20433;-90
2022/02/14 11:39:53;;;;;;;8.40;2.50;;;13.50;92.40;;;;;;5130819;28;20478;-87
2022/02/14 11:42:23;;;;;;;8.77;2.40;;;13.50;92.60;;;;;;5132054;28;20478;-88
2022/02/14 11:45:12;;;;;;;4.70;2.00;;;13.50;92.50;;;;;;5128949;28;20420;-87
2022/02/14 11:47:41;;;;;;;5.50;2.10;;;13.40;92.50;;;;;;5128752;28;20430;-88
2022/02/14 11:50:39;;;;;;;5.33;2.47;;;13.50;92.60;;;;;;5131954;28;20413;-89
2022/02/14 11:53:34;;;;;;;4.87;2.40;;;13.50;92.80;;;;;;5126046;28;20487;-89
2022/02/14 11:56:33;;;;;;;4.27;2.13;;;13.40;92.90;;;;;;5127515;28;20446;-88
2022/02/14 11:59:11;;;;;;;8.40;2.70;;;13.50;93.00;;;;;;5125410;27;20452;-89
2022/02/14 12:01:59;;;;;;;4.90;2.27;;;13.50;93.10;;;;;;5126802;28;20902;-88
2022/02/14 12:04:48;;;;;;;6.00;2.27;;;13.60;92.70;;;;;;5126938;28;20442;-89
2022/02/14 12:07:26;;;;;;;7.57;2.10;;;13.60;92.60;;;;;;5121786;28;20438;-89
2022/02/14 12:10:21;;;;;;;6.80;2.20;;;13.50;92.60;;;;;;5121309;28;20410;-89
2022/02/14 12:13:08;;;;;;;6.20;2.07;;;13.70;92.70;;;;;;5125618;28;20478;-91
2022/02/14 12:21:43;;;;;;;10.67;2.57;;;13.90;92.60;;;;;;5050509;28;20472;-91
2022/02/14 12:24:19;;;;;;;6.50;2.10;;;13.90;92.70;;;;;;5101911;28;20427;-89
2022/02/14 12:26:55;;;;;;;4.77;1.53;;;13.60;93.10;;;;;;5134253;28;20417;-89
2022/02/14 12:29:36;;;;;;;10.10;2.50;;;13.70;93.70;;;;;;5138352;28;20432;-89
2022/02/14 12:32:08;;;;;;;4.70;2.23;;;13.70;93.80;;;;;;5137884;28;20469;-90
2022/02/14 12:34:37;;;;;;;6.17;2.10;;;13.80;93.90;;;;;;5137952;28;20417;-89
2022/02/14 12:37:07;;;;;;;4.80;1.80;;;13.70;93.90;;;;;;5137071;28;20429;-90
2022/02/14 12:39:37;;;;;;;5.97;1.60;;;13.60;94.30;;;;;;5135494;28;20492;-88
2022/02/14 12:42:12;;;;;;;4.40;1.80;;;13.60;94.60;;;;;;5135121;28;20466;-88
2022/02/14 12:44:45;;;;;;;4.60;1.90;;;13.50;94.90;;;;;;5128114;28;20802;-88
2022/02/14 12:47:13;;;;;;;4.87;2.10;;;13.50;94.90;;;;;;5136757;28;20437;-89
2022/02/14 12:49:42;;;;;;;4.53;2.00;;;13.50;95.10;;;;;;5130753;28;20450;-89
2022/02/14 12:52:16;;;;;;;6.30;1.80;;;13.50;95.20;;;;;;5130701;28;20787;-89
2022/02/14 12:54:55;;;;;;;3.83;1.70;;;13.50;95.20;;;;;;5129971;28;20454;-89
2022/02/14 12:57:40;;;;;;;5.23;2.10;;;13.70;94.90;;;;;;5127350;28;20483;-88
2022/02/14 13:00:29;;;;;;;4.50;2.33;;;13.60;94.90;;;;;;5129877;28;20456;-88
2022/02/14 13:02:57;;;;;;;4.03;1.70;;;13.60;94.80;;;;;;5124724;28;20833;-88
2022/02/14 13:05:24;;;;;;;8.60;1.77;;;13.70;94.80;;;;;;5127963;28;20458;-89
2022/02/14 13:07:51;;;;;;;10.90;2.37;;;13.70;94.90;;;;;;5128064;28;20520;-89
2022/02/14 13:10:18;;;;;;;6.70;1.70;;;13.70;94.80;;;;;;5134184;28;20477;-87